Time;durP1;ratioP1;P1;durP2;ratioP2;P2;SDS_P1;SDS_P2;PMS_P1;PMS_P2;Temp;Humidity;BMP_temperature;BMP_pressure;BME280_temperature;BME280_humidity;BME280_pressure;Samples;Min_cycle;Max_cycle;Signal;HPM_P1;HPM_P2
2023/03/01 00:01:15;;;;;;;14.30;7.27;;;;;;;4.22;48.55;101671.34;5095916;28;20219;-65
2023/03/01 00:03:43;;;;;;;16.40;8.50;;;;;;;4.16;48.52;101661.97;5098529;28;20567;-66
2023/03/01 00:06:12;;;;;;;15.60;7.93;;;;;;;4.15;48.53;101676.03;5097003;27;20231;-67
2023/03/01 00:08:40;;;;;;;13.97;6.97;;;;;;;4.13;48.84;101677.91;5095594;28;20215;-67
2023/03/01 00:11:11;;;;;;;16.13;7.63;;;;;;;4.05;48.96;101670.38;5098584;28;20198;-68
2023/03/01 00:13:38;;;;;;;15.87;8.07;;;;;;;4.11;48.89;101669.25;5097798;28;20199;-65
2023/03/01 00:16:08;;;;;;;17.47;7.27;;;;;;;4.12;48.94;101666.56;5098930;28;20221;-67
2023/03/01 00:18:36;;;;;;;15.03;7.87;;;;;;;4.07;48.94;101668.53;5098689;28;20214;-68
2023/03/01 00:21:05;;;;;;;14.10;6.90;;;;;;;4.07;49.01;101655.41;5097855;28;20206;-68
2023/03/01 00:23:35;;;;;;;19.37;7.50;;;;;;;4.05;49.03;101665.13;5095625;28;20677;-68
2023/03/01 00:26:03;;;;;;;15.90;8.27;;;;;;;4.04;49.04;101668.72;5100975;28;20207;-68
2023/03/01 00:28:30;;;;;;;22.93;9.80;;;;;;;4.01;49.12;101674.09;5092663;28;20216;-64
2023/03/01 00:31:03;;;;;;;17.77;7.90;;;;;;;4.03;49.16;101672.25;5099093;28;20210;-66
2023/03/01 00:33:31;;;;;;;16.53;8.00;;;;;;;4.01;49.21;101671.47;5097032;28;20226;-67
2023/03/01 00:36:00;;;;;;;14.47;7.80;;;;;;;4.01;49.20;101668.84;5088939;28;20607;-66
2023/03/01 00:38:28;;;;;;;13.63;7.97;;;;;;;3.97;49.28;101662.03;5098627;28;20317;-66
2023/03/01 00:41:04;;;;;;;16.83;7.87;;;;;;;3.91;49.31;101664.13;5099602;28;20211;-66
2023/03/01 00:43:36;;;;;;;16.57;7.83;;;;;;;3.91;49.40;101659.75;5096252;28;20199;-67
2023/03/01 00:46:04;;;;;;;16.57;8.17;;;;;;;3.87;49.67;101668.69;5100378;28;20311;-66
2023/03/01 00:48:32;;;;;;;16.17;8.40;;;;;;;3.83;49.74;101667.16;5096349;28;20215;-66
2023/03/01 00:51:06;;;;;;;15.33;8.37;;;;;;;3.85;49.92;101670.56;5098481;28;20209;-67
2023/03/01 00:53:34;;;;;;;16.60;8.17;;;;;;;3.85;49.70;101674.94;5096888;28;20712;-66
2023/03/01 00:56:04;;;;;;;18.40;7.50;;;;;;;3.87;49.82;101673.94;5098589;28;20207;-68
2023/03/01 00:58:32;;;;;;;16.20;8.07;;;;;;;3.87;49.71;101671.31;5097305;28;20217;-67
2023/03/01 01:01:00;;;;;;;15.77;8.23;;;;;;;3.88;49.70;101666.91;5098681;28;20210;-68
2023/03/01 01:03:28;;;;;;;15.37;7.57;;;;;;;3.82;50.04;101662.81;5095699;28;20282;-67
2023/03/01 01:05:55;;;;;;;17.27;8.67;;;;;;;3.77;50.19;101656.97;5096596;28;20233;-68
2023/03/01 01:08:23;;;;;;;19.33;8.67;;;;;;;3.76;50.18;101656.13;5098888;28;20241;-67
2023/03/01 01:10:51;;;;;;;16.20;8.30;;;;;;;3.76;50.08;101647.41;5097504;28;20210;-66
2023/03/01 01:13:20;;;;;;;20.20;9.30;;;;;;;3.66;50.55;101639.13;5093373;28;20232;-66
2023/03/01 01:15:47;;;;;;;15.37;8.47;;;;;;;3.65;50.38;101636.56;5088961;28;20680;-67
2023/03/01 01:18:15;;;;;;;16.90;7.50;;;;;;;3.60;50.61;101634.19;5098366;28;20257;-66
2023/03/01 01:20:43;;;;;;;15.10;8.43;;;;;;;3.54;50.75;101631.84;5096270;28;20215;-67
2023/03/01 01:23:11;;;;;;;16.80;8.20;;;;;;;3.58;50.91;101624.69;5097508;28;20737;-65
2023/03/01 01:25:38;;;;;;;17.40;7.90;;;;;;;3.59;50.52;101621.16;5098385;28;20206;-68
2023/03/01 01:28:06;;;;;;;16.07;7.93;;;;;;;3.57;50.93;101623.00;5092645;28;20207;-68
2023/03/01 01:30:35;;;;;;;15.77;8.47;;;;;;;3.59;50.78;101629.00;5092093;28;20201;-68
2023/03/01 01:33:03;;;;;;;17.47;8.53;;;;;;;3.58;50.69;101616.81;5095645;28;20690;-66
2023/03/01 01:35:30;;;;;;;16.03;7.87;;;;;;;3.59;50.56;101622.00;5097389;28;20240;-68
2023/03/01 01:37:58;;;;;;;15.80;7.90;;;;;;;3.64;50.39;101606.00;5095362;28;20333;-68
2023/03/01 01:40:26;;;;;;;15.87;8.70;;;;;;;3.57;50.93;101602.00;5095866;28;20218;-65
2023/03/01 01:42:53;;;;;;;16.10;8.80;;;;;;;3.62;50.67;101600.84;5097726;28;20206;-67
2023/03/01 01:45:34;;;;;;;18.47;8.30;;;;;;;3.54;50.84;101597.75;5098054;28;20218;-68
2023/03/01 01:48:05;;;;;;;16.93;8.43;;;;;;;3.51;50.89;101589.19;5096053;28;20213;-68
2023/03/01 01:50:38;;;;;;;17.27;8.70;;;;;;;3.52;50.96;101586.47;5096816;28;20207;-66
2023/03/01 01:53:09;;;;;;;19.13;8.50;;;;;;;3.47;51.16;101590.25;5096240;28;20221;-66
2023/03/01 01:55:41;;;;;;;17.30;7.93;;;;;;;3.44;51.07;101585.16;5096851;28;20225;-66
2023/03/01 01:58:11;;;;;;;17.47;8.13;;;;;;;3.50;50.99;101588.34;5100632;28;20206;-67
2023/03/01 02:00:39;;;;;;;14.07;8.53;;;;;;;3.47;51.17;101585.03;5094686;28;20649;-68
2023/03/01 02:03:12;;;;;;;15.40;7.77;;;;;;;3.47;51.02;101585.88;5096667;28;20681;-68
2023/03/01 02:05:47;;;;;;;15.60;8.37;;;;;;;3.44;51.26;101582.53;5100636;28;20717;-69
2023/03/01 02:08:23;;;;;;;18.50;8.70;;;;;;;3.45;51.22;101587.72;5096103;28;20336;-68
2023/03/01 02:10:54;;;;;;;15.57;8.03;;;;;;;3.50;50.95;101579.63;5094962;28;20214;-67
2023/03/01 02:13:21;;;;;;;17.23;8.57;;;;;;;3.48;51.11;101578.84;5096704;28;20699;-68
2023/03/01 02:15:50;;;;;;;18.47;8.50;;;;;;;3.49;50.98;101575.31;5094802;28;20210;-67
2023/03/01 02:18:21;;;;;;;16.80;8.70;;;;;;;3.50;50.95;101569.16;5093219;28;20198;-67
2023/03/01 02:21:06;;;;;;;18.97;9.13;;;;;;;3.43;51.16;101562.50;5096926;28;20209;-67
2023/03/01 02:23:34;;;;;;;20.03;9.43;;;;;;;3.39;51.28;101565.28;5095564;28;20226;-67
2023/03/01 02:26:08;;;;;;;18.07;8.87;;;;;;;3.38;51.46;101563.56;5096830;28;20246;-67
2023/03/01 02:28:40;;;;;;;17.23;8.00;;;;;;;3.41;51.39;101567.81;5097532;27;20207;-66
2023/03/01 02:33:56;;;;;;;16.30;8.93;;;;;;;3.48;51.40;101563.13;5086735;28;20315;-67
2023/03/01 02:36:27;;;;;;;17.07;7.83;;;;;;;3.51;51.41;101563.81;5097498;27;20610;-67
2023/03/01 02:38:59;;;;;;;18.90;8.70;;;;;;;3.54;51.65;101560.19;5095168;28;20212;-66
2023/03/01 02:41:31;;;;;;;16.77;8.70;;;;;;;3.61;51.40;101556.31;5095664;28;20285;-67
2023/03/01 02:44:00;;;;;;;18.33;8.60;;;;;;;3.54;51.50;101552.31;5098953;28;20206;-66
2023/03/01 02:46:29;;;;;;;16.80;8.60;;;;;;;3.50;51.54;101550.78;5097309;28;20206;-67
2023/03/01 02:48:59;;;;;;;17.87;8.73;;;;;;;3.48;51.80;101552.63;5100808;27;20654;-68
2023/03/01 02:51:39;;;;;;;17.13;8.23;;;;;;;3.44;51.86;101541.44;5102779;27;20571;-66
2023/03/01 02:54:13;;;;;;;16.57;8.47;;;;;;;3.39;51.97;101541.69;5098110;28;20222;-67
2023/03/01 02:56:42;;;;;;;15.07;8.30;;;;;;;3.40;52.14;101547.78;5098747;28;20666;-71
2023/03/01 02:59:12;;;;;;;18.53;9.27;;;;;;;3.40;52.00;101542.53;5099779;28;20719;-68
2023/03/01 03:01:40;;;;;;;15.40;8.50;;;;;;;3.43;51.89;101539.72;5099200;28;20225;-68
2023/03/01 03:04:10;;;;;;;19.37;9.13;;;;;;;3.45;51.88;101534.41;5099350;28;20274;-70
2023/03/01 03:06:38;;;;;;;23.07;10.07;;;;;;;3.43;52.09;101533.66;5099279;28;20241;-67
2023/03/01 03:09:07;;;;;;;16.73;8.73;;;;;;;3.40;52.06;101522.41;5100143;28;20210;-67
2023/03/01 03:11:36;;;;;;;19.43;9.10;;;;;;;3.31;52.44;101516.75;5099782;28;20206;-68
2023/03/01 03:14:04;;;;;;;16.87;9.50;;;;;;;3.33;52.21;101521.03;5094436;28;20234;-68
2023/03/01 03:16:33;;;;;;;23.50;9.67;;;;;;;3.35;52.31;101520.91;5094945;28;20210;-67
2023/03/01 03:19:04;;;;;;;19.20;9.27;;;;;;;3.36;52.17;101512.97;5096406;28;20687;-66
2023/03/01 03:21:32;;;;;;;17.20;9.20;;;;;;;3.37;52.27;101512.06;5095343;28;20226;-67
2023/03/01 03:24:00;;;;;;;17.83;9.10;;;;;;;3.37;52.22;101512.06;5094962;28;20209;-67
2023/03/01 03:26:28;;;;;;;18.00;9.13;;;;;;;3.36;52.39;101502.50;5094905;28;20298;-68
2023/03/01 03:28:56;;;;;;;16.37;8.97;;;;;;;3.39;52.43;101501.50;5091176;28;20770;-67
2023/03/01 03:31:24;;;;;;;16.53;9.03;;;;;;;3.44;52.22;101503.88;5091585;28;20206;-65
2023/03/01 03:33:54;;;;;;;18.87;9.53;;;;;;;3.52;51.98;101504.34;5093021;28;20229;-67
2023/03/01 03:36:24;;;;;;;20.97;9.20;;;;;;;3.49;52.11;101502.72;5094935;28;20236;-66
2023/03/01 03:38:51;;;;;;;20.67;9.33;;;;;;;3.56;51.78;101498.00;5096387;28;20960;-68
2023/03/01 03:41:19;;;;;;;17.87;9.10;;;;;;;3.60;51.65;101489.94;5091339;28;20913;-66
2023/03/01 03:43:48;;;;;;;16.53;8.50;;;;;;;3.60;51.73;101494.31;5092772;28;20212;-67
2023/03/01 03:46:16;;;;;;;18.70;9.53;;;;;;;3.55;51.87;101488.44;5095787;28;20309;-66
2023/03/01 03:48:45;;;;;;;20.30;9.27;;;;;;;3.53;51.87;101482.44;5095114;28;20214;-67
2023/03/01 03:51:16;;;;;;;19.33;9.80;;;;;;;3.51;51.83;101482.53;5092960;28;20301;-67
2023/03/01 03:53:45;;;;;;;15.60;8.73;;;;;;;3.45;52.12;101482.81;5094931;28;20222;-66
2023/03/01 03:56:13;;;;;;;20.43;9.83;;;;;;;3.48;52.05;101484.44;5092906;28;20862;-68
2023/03/01 03:58:41;;;;;;;19.93;9.83;;;;;;;3.35;52.45;101479.81;5097074;28;20202;-68
2023/03/01 04:01:09;;;;;;;18.53;9.60;;;;;;;3.36;52.46;101471.03;5096100;28;20214;-68
2023/03/01 04:03:36;;;;;;;19.70;9.80;;;;;;;3.34;52.53;101475.50;5095990;28;20198;-66
2023/03/01 04:06:05;;;;;;;27.43;9.93;;;;;;;3.35;52.49;101474.56;5089549;28;20234;-68
2023/03/01 04:08:34;;;;;;;24.63;10.13;;;;;;;3.35;52.52;101479.81;5097787;28;20686;-69
2023/03/01 04:13:46;;;;;;;18.07;9.57;;;;;;;3.20;52.96;101479.75;5094577;28;20237;-68
2023/03/01 04:16:14;;;;;;;23.50;9.97;;;;;;;3.19;53.09;101473.66;5103842;28;20237;-68
2023/03/01 04:18:42;;;;;;;18.77;10.13;;;;;;;3.18;53.35;101471.09;5098621;28;20229;-67
2023/03/01 04:21:11;;;;;;;19.73;10.27;;;;;;;3.16;53.33;101484.31;5098174;28;20210;-70
2023/03/01 04:23:40;;;;;;;25.17;10.17;;;;;;;3.07;53.81;101478.66;5097357;28;20229;-66
2023/03/01 04:26:08;;;;;;;22.00;9.73;;;;;;;3.10;53.61;101478.50;5097933;28;20230;-68
2023/03/01 04:28:39;;;;;;;20.10;9.47;;;;;;;3.18;53.41;101481.59;5095719;28;20210;-68
2023/03/01 04:31:13;;;;;;;20.23;10.47;;;;;;;3.24;53.40;101484.78;5097730;28;20213;-67
2023/03/01 04:33:42;;;;;;;21.63;10.33;;;;;;;3.24;53.64;101482.16;5088602;28;20229;-67
2023/03/01 04:36:10;;;;;;;21.67;9.83;;;;;;;3.24;53.28;101473.44;5097815;28;20295;-67
2023/03/01 04:38:40;;;;;;;22.40;10.30;;;;;;;3.22;53.39;101485.75;5096626;28;20213;-67
2023/03/01 04:41:11;;;;;;;20.97;10.60;;;;;;;3.27;53.25;101481.13;5096254;28;20297;-66
2023/03/01 04:43:39;;;;;;;21.23;10.03;;;;;;;3.24;55.35;101482.16;5098827;28;20206;-71
2023/03/01 04:46:09;;;;;;;21.07;10.00;;;;;;;3.18;54.12;101485.06;5096563;28;20214;-67
2023/03/01 04:48:37;;;;;;;19.80;10.50;;;;;;;3.20;53.78;101487.59;5096309;28;20243;-67
2023/03/01 04:51:06;;;;;;;22.50;10.70;;;;;;;3.25;53.49;101478.59;5098184;28;20210;-67
2023/03/01 04:53:35;;;;;;;18.13;9.67;;;;;;;3.23;53.55;101476.97;5095115;28;20293;-67
2023/03/01 04:56:06;;;;;;;23.27;10.47;;;;;;;3.34;53.22;101485.97;5102763;27;20203;-67
2023/03/01 04:58:33;;;;;;;22.67;10.10;;;;;;;3.20;53.48;101482.38;5102983;27;20206;-67
2023/03/01 05:01:01;;;;;;;21.50;10.03;;;;;;;3.17;53.46;101478.13;5105725;27;20210;-67
2023/03/01 05:03:29;;;;;;;23.00;10.70;;;;;;;3.21;53.61;101482.28;5102416;28;20213;-67
2023/03/01 05:06:00;;;;;;;23.80;10.67;;;;;;;3.30;53.34;101479.22;5104046;28;20232;-67
2023/03/01 05:08:28;;;;;;;21.63;9.77;;;;;;;3.34;53.31;101483.34;5104695;28;20206;-67
2023/03/01 05:10:56;;;;;;;22.50;10.07;;;;;;;3.37;53.13;101487.59;5102811;27;20203;-67
2023/03/01 05:13:25;;;;;;;21.57;10.37;;;;;;;3.37;53.18;101477.97;5104175;28;20698;-67
2023/03/01 05:15:55;;;;;;;20.53;10.63;;;;;;;3.43;53.05;101481.22;5105017;28;20222;-67
2023/03/01 05:18:25;;;;;;;18.20;10.53;;;;;;;3.37;53.15;101477.13;5104151;28;20265;-67
2023/03/01 05:20:56;;;;;;;18.93;9.30;;;;;;;3.43;53.07;101471.56;5103424;28;20570;-68
2023/03/01 05:23:23;;;;;;;18.27;9.53;;;;;;;3.56;52.82;101477.03;5104861;28;20680;-67
2023/03/01 05:25:52;;;;;;;21.77;10.20;;;;;;;3.52;53.09;101471.09;5101844;28;20217;-67
2023/03/01 05:28:20;;;;;;;19.57;9.90;;;;;;;3.49;53.21;101470.41;5104543;28;21333;-67
2023/03/01 05:30:51;;;;;;;22.20;10.40;;;;;;;3.56;53.15;101477.03;5101293;28;20213;-67
2023/03/01 05:33:21;;;;;;;24.27;10.77;;;;;;;3.50;53.03;101472.13;5098358;28;20202;-67
2023/03/01 05:35:50;;;;;;;24.67;10.10;;;;;;;3.50;53.21;101482.59;5103509;27;20230;-66
2023/03/01 05:38:18;;;;;;;29.40;11.10;;;;;;;3.44;53.20;101475.88;5104733;28;20296;-67
2023/03/01 05:40:48;;;;;;;20.40;10.67;;;;;;;3.49;53.13;101475.66;5101423;28;20210;-67
2023/03/01 05:43:17;;;;;;;22.07;10.67;;;;;;;3.47;53.10;101474.88;5102747;28;20233;-67
2023/03/01 05:45:46;;;;;;;21.50;11.37;;;;;;;3.39;53.45;101478.75;5103759;28;20263;-67
2023/03/01 05:48:15;;;;;;;20.63;10.07;;;;;;;3.34;53.60;101461.56;5102385;28;20668;-66
2023/03/01 05:50:45;;;;;;;21.13;10.67;;;;;;;3.40;53.56;101472.59;5102382;28;20202;-67
2023/03/01 05:53:15;;;;;;;23.60;11.07;;;;;;;3.40;53.30;101467.34;5102675;28;20958;-67
2023/03/01 05:55:45;;;;;;;26.00;10.87;;;;;;;3.38;53.66;101473.56;5102661;27;20234;-67
2023/03/01 05:58:15;;;;;;;24.57;11.60;;;;;;;3.43;53.37;101465.50;5101933;28;20202;-67
2023/03/01 06:00:45;;;;;;;21.87;11.17;;;;;;;3.47;53.15;101470.47;5093620;28;20216;-66
2023/03/01 06:03:16;;;;;;;22.67;10.47;;;;;;;3.43;53.14;101471.56;5102780;28;20206;-66
2023/03/01 06:05:44;;;;;;;21.67;10.93;;;;;;;3.45;53.23;101469.72;5103450;28;20718;-67
2023/03/01 06:08:13;;;;;;;23.90;11.07;;;;;;;3.50;53.36;101477.34;5101730;28;20209;-67
2023/03/01 06:10:41;;;;;;;24.73;11.40;;;;;;;3.52;53.46;101476.31;5102183;28;20673;-67
2023/03/01 06:13:09;;;;;;;21.00;10.73;;;;;;;3.58;53.24;101472.56;5102920;28;20205;-66
2023/03/01 06:15:37;;;;;;;24.73;11.50;;;;;;;3.57;53.21;101470.88;5103048;28;20233;-67
2023/03/01 06:18:05;;;;;;;21.73;11.53;;;;;;;3.51;53.55;101476.44;5103509;28;20230;-68
2023/03/01 06:20:35;;;;;;;21.13;11.13;;;;;;;3.55;53.46;101476.19;5100270;28;20255;-67
2023/03/01 06:23:03;;;;;;;21.83;11.60;;;;;;;3.60;53.55;101473.34;5103276;28;20206;-67
2023/03/01 06:25:30;;;;;;;22.10;11.20;;;;;;;3.64;53.48;101472.25;5102338;28;20830;-68
2023/03/01 06:27:58;;;;;;;30.43;10.73;;;;;;;3.67;53.26;101470.31;5102039;28;20214;-66
2023/03/01 06:30:27;;;;;;;22.67;11.33;;;;;;;3.69;53.20;101465.00;5102923;28;20677;-67
2023/03/01 06:33:02;;;;;;;26.93;12.57;;;;;;;3.71;52.97;101470.97;5101800;28;20233;-67
2023/03/01 06:35:31;;;;;;;25.60;12.23;;;;;;;3.66;53.03;101473.00;5101716;27;20239;-67
2023/03/01 06:38:02;;;;;;;20.60;11.03;;;;;;;3.65;53.14;101471.31;5104397;28;20582;-67
2023/03/01 06:40:30;;;;;;;22.20;10.70;;;;;;;3.63;53.26;101467.91;5101290;28;20218;-67
2023/03/01 06:42:59;;;;;;;21.00;11.60;;;;;;;3.59;53.45;101469.88;5097703;28;20288;-67
2023/03/01 06:45:27;;;;;;;23.23;11.90;;;;;;;3.65;53.42;101466.91;5098321;28;20199;-68
2023/03/01 06:48:03;;;;;;;27.93;12.00;;;;;;;3.72;53.06;101462.19;5103302;28;20207;-67
2023/03/01 06:50:31;;;;;;;27.13;10.80;;;;;;;3.78;52.96;101459.25;5103339;28;20646;-67
2023/03/01 06:53:00;;;;;;;25.87;11.40;;;;;;;3.86;52.61;101464.94;5103991;28;20203;-67
2023/03/01 06:55:28;;;;;;;22.00;11.93;;;;;;;3.90;52.56;101460.38;5103631;28;20255;-68
2023/03/01 06:57:56;;;;;;;23.17;10.57;;;;;;;3.90;52.82;101463.84;5102660;28;20229;-66
2023/03/01 07:00:25;;;;;;;20.33;11.57;;;;;;;3.87;52.50;101456.13;5103376;28;21024;-67
2023/03/01 07:02:53;;;;;;;24.77;11.50;;;;;;;3.89;52.45;101462.16;5100159;28;20222;-66
2023/03/01 07:05:21;;;;;;;25.20;11.17;;;;;;;3.91;52.52;101456.81;5102006;28;20252;-67
2023/03/01 07:07:49;;;;;;;25.57;12.13;;;;;;;3.94;52.41;101457.53;5104678;28;20231;-67
2023/03/01 07:10:18;;;;;;;23.53;12.10;;;;;;;4.01;51.98;101458.88;5101272;28;20872;-68
2023/03/01 07:12:46;;;;;;;26.87;12.23;;;;;;;4.02;52.17;101455.34;5102092;28;20219;-66
2023/03/01 07:15:14;;;;;;;22.17;12.40;;;;;;;4.14;51.80;101449.41;5103761;28;20250;-67
2023/03/01 07:17:44;;;;;;;26.00;12.23;;;;;;;4.20;51.83;101450.00;5102436;28;20210;-68
2023/03/01 07:20:13;;;;;;;22.17;10.27;;;;;;;4.24;51.48;101443.66;5103982;28;20720;-67
2023/03/01 07:22:41;;;;;;;25.07;12.33;;;;;;;4.22;51.40;101449.00;5103790;28;20210;-67
2023/03/01 07:25:09;;;;;;;24.40;11.40;;;;;;;4.22;51.47;101451.63;5102127;28;20920;-67
2023/03/01 07:27:39;;;;;;;21.73;11.30;;;;;;;4.22;51.20;101454.25;5101487;28;20264;-68
2023/03/01 07:30:08;;;;;;;22.87;11.27;;;;;;;4.15;51.38;101445.84;5101874;28;20217;-67
2023/03/01 07:32:36;;;;;;;23.73;11.87;;;;;;;4.07;51.63;101442.78;5102671;28;20216;-67
2023/03/01 07:35:04;;;;;;;22.47;12.07;;;;;;;4.06;51.94;101446.34;5105436;27;20266;-67
2023/03/01 07:37:31;;;;;;;22.83;11.40;;;;;;;4.00;51.94;101444.06;5106375;28;20235;-68
2023/03/01 07:39:59;;;;;;;24.20;13.37;;;;;;;4.01;52.09;101437.03;5106340;28;20223;-68
2023/03/01 07:42:27;;;;;;;20.93;11.67;;;;;;;3.94;52.12;101436.53;5107059;28;20242;-68
2023/03/01 07:44:56;;;;;;;24.10;12.40;;;;;;;3.97;52.14;101446.84;5106680;28;20208;-68
2023/03/01 07:47:24;;;;;;;20.63;11.37;;;;;;;3.87;52.22;101440.38;5104501;28;20219;-68
2023/03/01 07:49:51;;;;;;;22.93;11.57;;;;;;;3.97;52.21;101436.34;5104425;28;20213;-66
2023/03/01 07:52:19;;;;;;;20.57;11.37;;;;;;;3.95;52.21;101440.84;5108065;28;20211;-67
2023/03/01 07:54:47;;;;;;;25.33;11.60;;;;;;;3.98;52.14;101440.66;5107725;28;20753;-67
2023/03/01 07:57:14;;;;;;;25.50;12.90;;;;;;;4.04;51.91;101437.72;5109039;28;20222;-68
2023/03/01 07:59:42;;;;;;;21.37;11.87;;;;;;;4.09;51.53;101440.09;5105581;28;20204;-67
2023/03/01 08:02:11;;;;;;;28.97;11.17;;;;;;;4.19;51.51;101443.91;5106437;28;20972;-67
2023/03/01 08:04:39;;;;;;;25.80;12.20;;;;;;;4.36;51.15;101433.34;5105634;28;20238;-67
2023/03/01 08:07:07;;;;;;;31.40;12.43;;;;;;;4.45;51.06;101426.72;5106298;28;20831;-68
2023/03/01 08:09:35;;;;;;;20.90;11.63;;;;;;;4.60;50.87;101432.88;5104850;28;20217;-67
2023/03/01 08:12:04;;;;;;;20.23;11.27;;;;;;;4.69;50.55;101433.22;5105044;28;20215;-67
2023/03/01 08:14:32;;;;;;;27.37;12.10;;;;;;;4.84;49.97;101426.22;5107894;28;20209;-68
2023/03/01 08:17:00;;;;;;;21.30;11.83;;;;;;;4.92;49.74;101432.72;5106709;28;20240;-67
2023/03/01 08:19:30;;;;;;;28.50;12.07;;;;;;;4.98;49.38;101421.03;5103932;28;20306;-67
2023/03/01 08:21:59;;;;;;;22.73;12.33;;;;;;;5.01;49.49;101425.28;5106658;28;20213;-67
2023/03/01 08:24:27;;;;;;;24.27;12.47;;;;;;;5.06;49.04;101410.91;5106769;27;20213;-67
2023/03/01 08:26:55;;;;;;;27.30;12.27;;;;;;;5.10;48.96;101416.84;5103935;28;20209;-67
2023/03/01 08:29:24;;;;;;;26.07;12.57;;;;;;;5.20;48.99;101410.94;5107149;28;20209;-67
2023/03/01 08:31:52;;;;;;;26.23;12.10;;;;;;;5.27;48.60;101416.69;5106446;28;20298;-69
2023/03/01 08:34:20;;;;;;;23.17;12.37;;;;;;;5.30;48.57;101419.13;5104848;28;20213;-68
2023/03/01 08:36:49;;;;;;;22.63;11.43;;;;;;;5.36;48.63;101416.16;5105897;28;20283;-68
2023/03/01 08:39:19;;;;;;;22.73;12.90;;;;;;;5.37;48.22;101412.56;5106471;28;20209;-67
2023/03/01 08:41:47;;;;;;;28.10;12.07;;;;;;;5.38;47.98;101419.50;5105871;28;20219;-67
2023/03/01 08:44:16;;;;;;;22.13;12.63;;;;;;;5.46;47.75;101416.41;5104965;28;20666;-67
2023/03/01 08:46:45;;;;;;;20.20;11.50;;;;;;;5.65;47.33;101422.25;5105536;27;20212;-67
2023/03/01 08:49:20;;;;;;;21.80;13.00;;;;;;;5.75;46.96;101404.13;5106408;28;20380;-68
2023/03/01 08:51:49;;;;;;;24.13;13.40;;;;;;;6.03;46.93;101402.34;5107148;28;20209;-68
2023/03/01 08:54:20;;;;;;;24.20;12.83;;;;;;;6.45;46.06;101387.38;5106020;28;20206;-69
2023/03/01 08:56:48;;;;;;;19.97;12.03;;;;;;;6.83;45.29;101387.50;5107002;28;20332;-67
2023/03/01 08:59:18;;;;;;;22.10;13.43;;;;;;;7.14;44.40;101392.41;5106186;28;20271;-68
2023/03/01 09:01:45;;;;;;;25.53;13.70;;;;;;;7.61;43.95;101385.66;5107286;28;20207;-66
2023/03/01 09:04:15;;;;;;;21.60;12.77;;;;;;;8.37;42.75;101385.50;5103435;28;20923;-67
2023/03/01 09:06:43;;;;;;;22.67;13.20;;;;;;;9.72;40.12;101377.00;5106311;28;20308;-69
2023/03/01 09:09:16;;;;;;;21.70;13.13;;;;;;;11.51;36.77;101367.44;5105612;28;20214;-68
2023/03/01 09:11:49;;;;;;;22.37;13.73;;;;;;;12.87;34.26;101366.75;5106328;28;20237;-67
2023/03/01 09:14:17;;;;;;;24.87;14.37;;;;;;;14.57;31.58;101363.72;5106827;28;20210;-68
2023/03/01 09:16:45;;;;;;;22.73;14.07;;;;;;;15.99;29.54;101374.06;5104612;28;20230;-68
2023/03/01 09:19:14;;;;;;;23.03;14.90;;;;;;;17.01;27.63;101363.06;5106422;27;20612;-66
2023/03/01 09:21:52;;;;;;;21.03;14.97;;;;;;;19.04;25.81;101360.31;5107058;27;20314;-68
2023/03/01 09:24:22;;;;;;;21.80;14.07;;;;;;;20.15;24.04;101362.09;5105007;28;20213;-68
2023/03/01 09:26:53;;;;;;;21.97;15.10;;;;;;;19.97;24.07;101359.81;5105442;28;20225;-68
2023/03/01 09:29:21;;;;;;;17.67;13.30;;;;;;;20.06;23.73;101347.91;5105747;28;20203;-67
2023/03/01 09:31:49;;;;;;;17.83;13.80;;;;;;;19.57;24.24;101355.75;5103925;28;20206;-67
2023/03/01 09:34:22;;;;;;;19.43;13.90;;;;;;;18.32;25.48;101350.91;5104112;28;20206;-68
2023/03/01 09:36:51;;;;;;;21.13;15.17;;;;;;;17.68;26.08;101352.88;5104147;28;20218;-66
2023/03/01 09:39:21;;;;;;;19.63;14.67;;;;;;;17.47;26.72;101361.47;5102307;28;20218;-68
2023/03/01 09:41:55;;;;;;;25.83;14.67;;;;;;;17.01;27.36;101346.13;5103821;28;20218;-67
2023/03/01 09:44:32;;;;;;;17.80;13.67;;;;;;;16.65;27.86;101343.78;5105160;28;20431;-67
2023/03/01 09:47:00;;;;;;;19.80;14.23;;;;;;;16.39;28.20;101353.75;5105069;28;20209;-67
2023/03/01 09:49:31;;;;;;;18.03;13.50;;;;;;;16.24;28.30;101350.06;5104714;28;20213;-68
2023/03/01 09:52:04;;;;;;;17.70;14.07;;;;;;;16.92;27.27;101346.16;5105898;28;20218;-67
2023/03/01 09:54:33;;;;;;;21.40;14.57;;;;;;;17.74;26.67;101340.66;5104726;28;20255;-68
2023/03/01 09:57:17;;;;;;;20.17;14.77;;;;;;;17.98;25.68;101343.22;5104543;28;20237;-67
2023/03/01 10:00:09;;;;;;;23.03;15.10;;;;;;;18.43;25.70;101331.72;5103636;28;20210;-67
2023/03/01 10:02:42;;;;;;;19.00;14.30;;;;;;;19.32;24.41;101339.03;5103143;28;20198;-67
2023/03/01 10:05:22;;;;;;;23.67;14.67;;;;;;;19.06;24.76;101338.63;5104659;28;20253;-68
2023/03/01 10:08:03;;;;;;;20.47;14.73;;;;;;;19.01;25.05;101325.72;5106804;28;20611;-69
2023/03/01 10:10:36;;;;;;;21.00;15.07;;;;;;;19.17;24.25;101325.56;5104565;28;20202;-66
2023/03/01 10:13:15;;;;;;;23.93;16.13;;;;;;;20.36;23.56;101320.94;5103775;28;20236;-67
2023/03/01 10:15:48;;;;;;;21.63;15.93;;;;;;;22.09;21.58;101307.44;5103677;28;20659;-67
2023/03/01 10:18:21;;;;;;;22.77;15.63;;;;;;;21.94;21.53;101311.31;5103295;28;20958;-67
2023/03/01 10:20:54;;;;;;;22.15;16.27;;;;;;;21.43;21.68;101302.75;5102015;28;20669;-67
2023/03/01 10:23:24;;;;;;;28.25;16.00;;;;;;;21.18;22.28;101302.41;5105164;28;20423;-67
2023/03/01 10:26:07;;;;;;;19.10;15.63;;;;;;;20.76;22.12;101298.72;5101984;28;20809;-68
2023/03/01 10:28:45;;;;;;;19.40;15.65;;;;;;;21.78;21.67;101297.13;5104255;28;20397;-66
2023/03/01 10:31:15;;;;;;;18.15;14.88;;;;;;;23.02;20.79;101291.34;5102674;28;20206;-67
2023/03/01 10:33:43;;;;;;;28.65;15.52;;;;;;;23.80;20.08;101286.78;5103965;28;20206;-68
2023/03/01 10:36:11;;;;;;;19.92;15.18;;;;;;;24.09;19.76;101288.94;5104516;28;20237;-67
2023/03/01 10:38:52;;;;;;;21.65;16.75;;;;;;;24.43;18.85;101287.69;5102657;28;20237;-68
2023/03/01 10:41:24;;;;;;;19.40;15.27;;;;;;;25.07;18.26;101290.09;5103533;28;20201;-67
2023/03/01 10:43:54;;;;;;;21.52;16.00;;;;;;;24.96;18.65;101281.88;5102410;28;20210;-68
2023/03/01 10:46:27;;;;;;;23.98;16.20;;;;;;;26.75;17.11;101265.72;5103477;28;20289;-68
2023/03/01 10:49:14;;;;;;;18.25;15.00;;;;;;;27.47;16.31;101276.34;5100089;28;20218;-65
2023/03/01 10:51:45;;;;;;;17.10;15.00;;;;;;;26.79;17.27;101266.09;5099571;28;20289;-67
2023/03/01 10:54:21;;;;;;;17.75;14.93;;;;;;;26.50;17.00;101257.78;5102964;28;20217;-67
2023/03/01 10:56:54;;;;;;;18.23;15.77;;;;;;;24.42;18.22;101260.81;5101222;28;20221;-67
2023/03/01 10:59:28;;;;;;;22.73;15.55;;;;;;;23.32;19.26;101262.75;5101986;28;20270;-68
2023/03/01 11:02:15;;;;;;;19.20;16.23;;;;;;;23.83;19.56;101254.69;5103081;28;20216;-67
2023/03/01 11:04:59;;;;;;;23.05;16.08;;;;;;;23.00;19.93;101253.69;5101961;28;20226;-68
2023/03/01 11:07:28;;;;;;;20.80;16.15;;;;;;;21.42;21.34;101247.97;5105098;28;20210;-66
2023/03/01 11:09:56;;;;;;;22.30;16.05;;;;;;;19.72;22.62;101232.81;5102203;28;20438;-67
2023/03/01 11:12:28;;;;;;;20.52;16.73;;;;;;;18.29;23.99;101231.31;5100865;28;20206;-67
2023/03/01 11:14:56;;;;;;;20.83;16.67;;;;;;;16.93;25.60;101232.63;5102776;28;20238;-67
2023/03/01 11:17:28;;;;;;;21.05;16.40;;;;;;;16.36;26.48;101225.63;5101315;28;20232;-67
2023/03/01 11:20:16;;;;;;;21.60;16.73;;;;;;;16.81;26.24;101215.22;5102809;28;20226;-67
2023/03/01 11:22:48;;;;;;;20.67;15.83;;;;;;;18.12;24.62;101212.81;5103957;28;20210;-67
2023/03/01 11:25:18;;;;;;;20.60;16.40;;;;;;;19.15;24.09;101200.41;5102474;28;20301;-67
2023/03/01 11:27:48;;;;;;;21.03;15.97;;;;;;;19.52;23.27;101200.31;5103503;28;20198;-67
2023/03/01 11:30:21;;;;;;;22.67;16.83;;;;;;;19.46;23.65;101192.09;5099641;28;20206;-67
2023/03/01 11:32:58;;;;;;;26.23;16.13;;;;;;;19.17;23.59;101185.75;5098703;28;20958;-67
2023/03/01 11:35:28;;;;;;;24.77;17.37;;;;;;;19.24;23.71;101187.72;5101253;28;20758;-67
2023/03/01 11:38:05;;;;;;;21.87;16.10;;;;;;;19.73;23.47;101185.22;5102221;28;21107;-67